CDT,Max TemperatureF,Mean TemperatureF,Min TemperatureF,Max Dew PointF,MeanDew PointF,Min DewpointF,Max Humidity, Mean Humidity, Min Humidity, Max Sea Level PressureIn, Mean Sea Level PressureIn, Min Sea Level PressureIn, Max VisibilityMiles, Mean VisibilityMiles, Min VisibilityMiles, Max Wind SpeedMPH, Mean Wind SpeedMPH, Max Gust SpeedMPH,PrecipitationIn, CloudCover, Events, WindDirDegrees
2012-10-1,76,65,54,54,49,45,93,64,35,29.85,29.83,29.79,10,10,10,16,5,21,0.00,0,,16
2012-10-2,77,64,50,52,47,43,83,60,36,29.92,29.88,29.84,10,10,7,10,5,20,0.00,0,,314
2012-10-3,78,65,52,53,50,48,93,65,36,30.01,29.96,29.90,10,10,9,15,8,24,0.00,0,,210
2012-10-4,72,60,48,56,49,42,80,64,48,30.25,30.15,30.02,10,10,4,18,10,26,0.20,4,Rain-Thunderstorm,298
2012-10-5,50,44,37,46,41,33,93,77,61,30.30,30.25,30.21,10,10,7,20,8,23,0.40,7,Rain-Thunderstorm,23
2012-10-6,48,43,37,35,32,28,85,67,49,30.34,30.30,30.28,10,10,10,13,6,17,0.00,4,,310
2012-10-7,55,44,33,33,30,27,82,59,35,30.34,30.26,30.19,10,10,10,12,5,24,0.00,1,,268
2012-10-8,61,50,38,37,33,30,76,56,36,30.19,30.12,30.03,10,10,10,21,11,25,0.00,0,,202
2012-10-9,69,56,42,55,45,38,83,64,45,30.11,29.98,29.90,10,10,4,20,10,25,0.03,3,Rain,234
2012-10-10,61,49,36,38,32,28,76,53,29,30.33,30.23,30.13,10,10,10,12,5,17,0.00,0,,270
2012-10-11,64,52,39,52,44,32,80,69,57,30.20,30.16,30.09,10,10,10,14,7,30,0.00,6,,156
2012-10-12,64,57,50,55,45,38,93,73,53,30.33,30.24,30.09,10,10,9,21,12,25,T,7,,97
2012-10-13,72,65,58,66,63,55,97,88,78,30.10,29.90,29.73,10,5,2,25,12,39,1.73,7,Rain-Thunderstorm,169
2012-10-14,70,61,51,63,55,42,93,68,42,29.99,29.76,29.59,10,10,7,26,14,33,0.01,4,Rain,244
2012-10-15,75,62,48,50,46,43,86,61,35,30.04,29.97,29.88,10,10,10,12,5,26,0.00,0,,178
2012-10-16,80,67,54,50,47,43,83,56,28,29.86,29.68,29.56,10,10,10,29,16,38,0.00,0,,197
2012-10-17,66,60,53,62,52,36,97,73,48,29.64,29.52,29.45,10,8,1,26,11,35,0.27,5,Rain-Thunderstorm,245
2012-10-18,60,54,47,38,32,29,59,46,32,29.66,29.64,29.61,10,10,10,29,18,39,T,4,,263
2012-10-19,52,49,46,46,42,39,100,83,66,29.84,29.73,29.62,10,10,10,26,13,36,0.02,8,Rain,285
2012-10-20,70,57,44,46,43,41,89,63,36,29.91,29.84,29.77,10,10,10,13,5,15,0.00,1,,133
2012-10-21,78,64,50,65,57,44,89,75,60,29.87,29.83,29.81,10,10,10,16,8,21,0.00,3,,163
2012-10-22,81,74,67,68,66,64,93,78,62,29.88,29.84,29.79,10,10,9,24,12,32,0.03,4,,188
2012-10-23,77,70,63,67,64,59,93,81,69,29.94,29.87,29.78,10,6,1,28,13,37,2.97,7,Rain-Thunderstorm,170
2012-10-24,83,76,68,68,64,61,81,70,58,29.88,29.83,29.75,10,10,10,25,15,32,0.00,0,,186
2012-10-25,73,58,42,64,49,33,89,79,68,30.28,29.93,29.71,10,9,2,28,16,37,0.08,6,Rain,298
2012-10-26,48,42,35,33,30,28,76,63,49,30.44,30.38,30.29,10,10,10,22,12,26,0.00,3,,360
2012-10-27,47,39,30,30,28,26,85,65,45,30.42,30.36,30.29,10,10,10,15,6,21,0.00,0,,4
2012-10-28,51,41,31,30,28,23,85,63,41,30.37,30.32,30.27,10,9,5,12,4,20,0.00,0,,12
2012-10-29,52,42,31,33,30,24,85,65,44,30.38,30.28,30.17,10,10,10,10,4,16,0.00,2,,107
2012-10-30,57,45,32,32,28,25,82,56,30,30.16,30.07,30.00,10,10,10,10,4,14,0.00,2,,352
2012-10-31,59,48,37,33,31,28,70,53,36,30.08,30.04,30.01,10,10,10,13,6,29,0.00,1,,312